sensor_id;sensor_type;location;lat;lon;timestamp;pressure;altitude;pressure_sealevel;temperature
78859;BMP280;68210;52.032;4.634;2024-01-11T00:48:04;103123.63;;;-2.30
78859;BMP280;68210;52.032;4.634;2024-01-11T00:50:05;103129.97;;;-2.37
78859;BMP280;68210;52.032;4.634;2024-01-11T00:52:06;103129.78;;;-2.36
78859;BMP280;68210;52.032;4.634;2024-01-11T00:54:06;103132.63;;;-2.37
78859;BMP280;68210;52.032;4.634;2024-01-11T00:56:25;103129.16;;;-2.38
78859;BMP280;68210;52.032;4.634;2024-01-11T00:58:27;103134.47;;;-2.38
78859;BMP280;68210;52.032;4.634;2024-01-11T01:00:28;103131.22;;;-2.40
78859;BMP280;68210;52.032;4.634;2024-01-11T01:02:28;103133.66;;;-2.38
78859;BMP280;68210;52.032;4.634;2024-01-11T01:04:29;103140.59;;;-2.37
78859;BMP280;68210;52.032;4.634;2024-01-11T01:06:29;103121.84;;;-2.48
78859;BMP280;68210;52.032;4.634;2024-01-11T01:08:30;103131.84;;;-2.50
78859;BMP280;68210;52.032;4.634;2024-01-11T01:10:30;103136.94;;;-2.42
78859;BMP280;68210;52.032;4.634;2024-01-11T01:12:31;103135.13;;;-2.55
78859;BMP280;68210;52.032;4.634;2024-01-11T01:14:31;103130.63;;;-2.48
78859;BMP280;68210;52.032;4.634;2024-01-11T01:16:32;103137.34;;;-2.45
78859;BMP280;68210;52.032;4.634;2024-01-11T01:18:32;103138.78;;;-2.43
78859;BMP280;68210;52.032;4.634;2024-01-11T01:20:33;103141.22;;;-2.42
78859;BMP280;68210;52.032;4.634;2024-01-11T01:22:33;103134.47;;;-2.38
78859;BMP280;68210;52.032;4.634;2024-01-11T01:24:34;103137.75;;;-2.36
78859;BMP280;68210;52.032;4.634;2024-01-11T01:26:35;103136.50;;;-2.40
78859;BMP280;68210;52.032;4.634;2024-01-11T01:28:36;103145.72;;;-2.36
78859;BMP280;68210;52.032;4.634;2024-01-11T01:30:36;103142.66;;;-2.45
78859;BMP280;68210;52.032;4.634;2024-01-11T01:32:37;103146.53;;;-2.42
78859;BMP280;68210;52.032;4.634;2024-01-11T01:34:37;103152.69;;;-2.47
78859;BMP280;68210;52.032;4.634;2024-01-11T01:36:38;103145.13;;;-2.50
78859;BMP280;68210;52.032;4.634;2024-01-11T03:31:03;103164.00;;;-2.84
78859;BMP280;68210;52.032;4.634;2024-01-11T03:33:28;103172.13;;;-2.79
78859;BMP280;68210;52.032;4.634;2024-01-11T03:35:29;103181.53;;;-2.76
78859;BMP280;68210;52.032;4.634;2024-01-11T03:37:29;103193.38;;;-2.79
78859;BMP280;68210;52.032;4.634;2024-01-11T03:39:29;103184.81;;;-2.87
78859;BMP280;68210;52.032;4.634;2024-01-11T03:41:30;103188.09;;;-2.92
78859;BMP280;68210;52.032;4.634;2024-01-11T03:43:30;103183.19;;;-2.95
78859;BMP280;68210;52.032;4.634;2024-01-11T03:45:31;103193.41;;;-2.92
78859;BMP280;68210;52.032;4.634;2024-01-11T03:47:31;103206.84;;;-2.87
78859;BMP280;68210;52.032;4.634;2024-01-11T03:49:31;103198.28;;;-2.89
78859;BMP280;68210;52.032;4.634;2024-01-11T03:51:32;103201.13;;;-2.90
78859;BMP280;68210;52.032;4.634;2024-01-11T03:53:36;103201.78;;;-2.95
78859;BMP280;68210;52.032;4.634;2024-01-11T03:55:37;103190.94;;;-3.00
78859;BMP280;68210;52.032;4.634;2024-01-11T03:57:37;103188.50;;;-2.95
78859;BMP280;68210;52.032;4.634;2024-01-11T03:59:37;103185.22;;;-2.97
78859;BMP280;68210;52.032;4.634;2024-01-11T04:01:40;103193.81;;;-2.95
78859;BMP280;68210;52.032;4.634;2024-01-11T04:03:41;103195.44;;;-3.00
78859;BMP280;68210;52.032;4.634;2024-01-11T04:05:42;103191.16;;;-2.95
78859;BMP280;68210;52.032;4.634;2024-01-11T04:07:42;103186.47;;;-2.86
78859;BMP280;68210;52.032;4.634;2024-01-11T04:09:42;103196.22;;;-2.87
78859;BMP280;68210;52.032;4.634;2024-01-11T04:11:43;103201.94;;;-2.90
78859;BMP280;68210;52.032;4.634;2024-01-11T04:13:43;103211.16;;;-2.86
78859;BMP280;68210;52.032;4.634;2024-01-11T04:15:44;103197.47;;;-2.96
78859;BMP280;68210;52.032;4.634;2024-01-11T04:17:44;103195.84;;;-2.97
78859;BMP280;68210;52.032;4.634;2024-01-11T04:19:44;103181.75;;;-2.91
78859;BMP280;68210;52.032;4.634;2024-01-11T04:21:45;103189.72;;;-2.91
78859;BMP280;68210;52.032;4.634;2024-01-11T04:23:45;103201.38;;;-2.92
78859;BMP280;68210;52.032;4.634;2024-01-11T04:25:45;103209.50;;;-2.87
78859;BMP280;68210;52.032;4.634;2024-01-11T04:27:46;103212.56;;;-2.90
78859;BMP280;68210;52.032;4.634;2024-01-11T04:29:46;103216.88;;;-2.89
78859;BMP280;68210;52.032;4.634;2024-01-11T04:31:47;103219.50;;;-2.95
78859;BMP280;68210;52.032;4.634;2024-01-11T04:33:47;103223.38;;;-2.98
78859;BMP280;68210;52.032;4.634;2024-01-11T04:35:47;103221.75;;;-2.99
78859;BMP280;68210;52.032;4.634;2024-01-11T04:37:48;103213.59;;;-3.03
78859;BMP280;68210;52.032;4.634;2024-01-11T04:39:48;103224.41;;;-2.99
78859;BMP280;68210;52.032;4.634;2024-01-11T04:41:48;103224.19;;;-3.03
78859;BMP280;68210;52.032;4.634;2024-01-11T04:43:49;103236.47;;;-3.03
78859;BMP280;68210;52.032;4.634;2024-01-11T04:45:49;103220.75;;;-3.10
78859;BMP280;68210;52.032;4.634;2024-01-11T04:47:50;103213.38;;;-3.08
78859;BMP280;68210;52.032;4.634;2024-01-11T04:49:51;103224.00;;;-3.08
78859;BMP280;68210;52.032;4.634;2024-01-11T04:51:51;103227.25;;;-3.06
78859;BMP280;68210;52.032;4.634;2024-01-11T04:53:52;103224.81;;;-3.02
78859;BMP280;68210;52.032;4.634;2024-01-11T04:55:52;103233.81;;;-3.03
78859;BMP280;68210;52.032;4.634;2024-01-11T04:57:52;103240.13;;;-3.03
78859;BMP280;68210;52.032;4.634;2024-01-11T04:59:53;103242.59;;;-3.02
78859;BMP280;68210;52.032;4.634;2024-01-11T05:01:53;103239.94;;;-3.02
78859;BMP280;68210;52.032;4.634;2024-01-11T05:03:54;103245.66;;;-2.99
78859;BMP280;68210;52.032;4.634;2024-01-11T05:05:54;103248.28;;;-2.99
78859;BMP280;68210;52.032;4.634;2024-01-11T05:07:54;103250.34;;;-3.01
78859;BMP280;68210;52.032;4.634;2024-01-11T05:09:55;103238.69;;;-3.06
78859;BMP280;68210;52.032;4.634;2024-01-11T05:11:55;103241.56;;;-3.07
78859;BMP280;68210;52.032;4.634;2024-01-11T05:13:56;103245.84;;;-3.06
78859;BMP280;68210;52.032;4.634;2024-01-11T05:15:56;103241.56;;;-3.07
78859;BMP280;68210;52.032;4.634;2024-01-11T05:17:57;103243.00;;;-3.05
78859;BMP280;68210;52.032;4.634;2024-01-11T05:19:59;103240.75;;;-3.08
78859;BMP280;68210;52.032;4.634;2024-01-11T05:21:59;103245.03;;;-3.07
78859;BMP280;68210;52.032;4.634;2024-01-11T05:24:00;103244.03;;;-3.00
78859;BMP280;68210;52.032;4.634;2024-01-11T05:26:00;103236.06;;;-3.00
78859;BMP280;68210;52.032;4.634;2024-01-11T05:28:02;103237.06;;;-3.01
78859;BMP280;68210;52.032;4.634;2024-01-11T05:30:03;103250.34;;;-3.01
78859;BMP280;68210;52.032;4.634;2024-01-11T05:32:05;103250.34;;;-3.01
78859;BMP280;68210;52.032;4.634;2024-01-11T05:34:05;103245.44;;;-3.03
78859;BMP280;68210;52.032;4.634;2024-01-11T05:36:06;103245.22;;;-2.96
78859;BMP280;68210;52.032;4.634;2024-01-11T05:38:06;103249.91;;;-2.98
78859;BMP280;68210;52.032;4.634;2024-01-11T05:40:07;103251.38;;;-3.02
78859;BMP280;68210;52.032;4.634;2024-01-11T05:42:08;103247.69;;;-3.01
78859;BMP280;68210;52.032;4.634;2024-01-11T05:44:08;103255.84;;;-2.96
78859;BMP280;68210;52.032;4.634;2024-01-11T05:46:09;103252.97;;;-3.01
78859;BMP280;68210;52.032;4.634;2024-01-11T05:48:10;103246.88;;;-3.01
78859;BMP280;68210;52.032;4.634;2024-01-11T05:50:11;103255.22;;;-3.04
78859;BMP280;68210;52.032;4.634;2024-01-11T05:52:12;103262.78;;;-3.07
78859;BMP280;68210;52.032;4.634;2024-01-11T05:54:12;103254.19;;;-3.09
78859;BMP280;68210;52.032;4.634;2024-01-11T05:56:13;103242.56;;;-3.08
78859;BMP280;68210;52.032;4.634;2024-01-11T05:58:14;103249.75;;;-3.03
78859;BMP280;68210;52.032;4.634;2024-01-11T06:00:14;103251.97;;;-3.00
78859;BMP280;68210;52.032;4.634;2024-01-11T06:02:15;103239.13;;;-3.03
78859;BMP280;68210;52.032;4.634;2024-01-11T06:04:15;103234.63;;;-3.02
78859;BMP280;68210;52.032;4.634;2024-01-11T06:06:16;103230.94;;;-3.07
78859;BMP280;68210;52.032;4.634;2024-01-11T06:08:18;103237.06;;;-3.07
78859;BMP280;68210;52.032;4.634;2024-01-11T06:10:19;103249.53;;;-3.01
78859;BMP280;68210;52.032;4.634;2024-01-11T06:12:19;103253.41;;;-2.97
78859;BMP280;68210;52.032;4.634;2024-01-11T06:14:19;103260.16;;;-2.95
78859;BMP280;68210;52.032;4.634;2024-01-11T06:16:20;103248.09;;;-3.03
78859;BMP280;68210;52.032;4.634;2024-01-11T06:18:20;103240.69;;;-3.27
78859;BMP280;68210;52.032;4.634;2024-01-11T06:20:21;103233.59;;;-3.27
78859;BMP280;68210;52.032;4.634;2024-01-11T06:22:21;103240.72;;;-3.21
78859;BMP280;68210;52.032;4.634;2024-01-11T06:24:21;103262.56;;;-3.19
78859;BMP280;68210;52.032;4.634;2024-01-11T06:26:22;103264.59;;;-3.21
78859;BMP280;68210;52.032;4.634;2024-01-11T06:28:23;103258.28;;;-3.13
78859;BMP280;68210;52.032;4.634;2024-01-11T06:30:23;103269.94;;;-3.08
78859;BMP280;68210;52.032;4.634;2024-01-11T06:32:24;103292.16;;;-3.09
78859;BMP280;68210;52.032;4.634;2024-01-11T06:34:24;103302.78;;;-3.09
78859;BMP280;68210;52.032;4.634;2024-01-11T06:36:24;103302.78;;;-3.09
78859;BMP280;68210;52.032;4.634;2024-01-11T06:38:25;103307.69;;;-3.12
78859;BMP280;68210;52.032;4.634;2024-01-11T06:40:25;103307.44;;;-3.17
78859;BMP280;68210;52.032;4.634;2024-01-11T06:42:26;103311.72;;;-3.16
78859;BMP280;68210;52.032;4.634;2024-01-11T06:44:26;103310.09;;;-3.17
78859;BMP280;68210;52.032;4.634;2024-01-11T06:46:26;103310.50;;;-3.20
78859;BMP280;68210;52.032;4.634;2024-01-11T06:48:27;103319.91;;;-3.24
78859;BMP280;68210;52.032;4.634;2024-01-11T06:50:27;103312.13;;;-3.32
78859;BMP280;68210;52.032;4.634;2024-01-11T06:52:27;103319.84;;;-3.31
78859;BMP280;68210;52.032;4.634;2024-01-11T06:54:28;103339.78;;;-3.47
78859;BMP280;68210;52.032;4.634;2024-01-11T06:56:30;103327.16;;;-3.45
78859;BMP280;68210;52.032;4.634;2024-01-11T06:58:30;103324.06;;;-3.49
78859;BMP280;68210;52.032;4.634;2024-01-11T07:00:31;103336.00;;;-3.32
78859;BMP280;68210;52.032;4.634;2024-01-11T07:02:31;103330.44;;;-3.37
78859;BMP280;68210;52.032;4.634;2024-01-11T07:04:31;103337.38;;;-3.36
78859;BMP280;68210;52.032;4.634;2024-01-11T07:06:33;103331.50;;;-3.25
78859;BMP280;68210;52.032;4.634;2024-01-11T07:08:33;103326.84;;;-3.23
78859;BMP280;68210;52.032;4.634;2024-01-11T07:10:35;103326.44;;;-3.20
78859;BMP280;68210;52.032;4.634;2024-01-11T07:12:35;103332.53;;;-3.20
78859;BMP280;68210;52.032;4.634;2024-01-11T07:14:38;103333.75;;;-3.22
78859;BMP280;68210;52.032;4.634;2024-01-11T07:16:38;103334.38;;;-3.20
78859;BMP280;68210;52.032;4.634;2024-01-11T07:18:39;103325.63;;;-3.14
78859;BMP280;68210;52.032;4.634;2024-01-11T07:20:39;103332.38;;;-3.05
78859;BMP280;68210;52.032;4.634;2024-01-11T07:22:40;103325.03;;;-3.03
78859;BMP280;68210;52.032;4.634;2024-01-11T07:24:40;103325.25;;;-2.99
78859;BMP280;68210;52.032;4.634;2024-01-11T07:26:40;103332.19;;;-2.98
78859;BMP280;68210;52.032;4.634;2024-01-11T07:28:41;103336.50;;;-2.90
78859;BMP280;68210;52.032;4.634;2024-01-11T07:30:41;103338.75;;;-2.94
78859;BMP280;68210;52.032;4.634;2024-01-11T07:32:42;103328.53;;;-2.90
78859;BMP280;68210;52.032;4.634;2024-01-11T07:34:42;103328.13;;;-2.94
78859;BMP280;68210;52.032;4.634;2024-01-11T07:36:43;103326.50;;;-2.95
78859;BMP280;68210;52.032;4.634;2024-01-11T07:38:43;103324.25;;;-2.91
78859;BMP280;68210;52.032;4.634;2024-01-11T07:40:44;103310.59;;;-2.88
78859;BMP280;68210;52.032;4.634;2024-01-11T07:42:45;103319.13;;;-2.93
78859;BMP280;68210;52.032;4.634;2024-01-11T07:44:46;103312.00;;;-2.92
78859;BMP280;68210;52.032;4.634;2024-01-11T07:46:46;103299.16;;;-2.89
78859;BMP280;68210;52.032;4.634;2024-01-11T07:48:47;103291.38;;;-2.90
78859;BMP280;68210;52.032;4.634;2024-01-11T07:50:47;103300.38;;;-2.85
78859;BMP280;68210;52.032;4.634;2024-01-11T07:52:47;103291.41;;;-2.84
78859;BMP280;68210;52.032;4.634;2024-01-11T07:54:48;103293.03;;;-2.76
78859;BMP280;68210;52.032;4.634;2024-01-11T07:56:48;103282.22;;;-2.62
78859;BMP280;68210;52.032;4.634;2024-01-11T07:58:48;103295.91;;;-2.59
78859;BMP280;68210;52.032;4.634;2024-01-11T08:00:49;103294.69;;;-2.56
78859;BMP280;68210;52.032;4.634;2024-01-11T08:02:49;103307.97;;;-2.43
78859;BMP280;68210;52.032;4.634;2024-01-11T08:04:49;103301.78;;;-2.12
78859;BMP280;68210;52.032;4.634;2024-01-11T08:06:50;103306.03;;;-1.85
78859;BMP280;68210;52.032;4.634;2024-01-11T08:08:53;103310.47;;;-1.67
78859;BMP280;68210;52.032;4.634;2024-01-11T08:10:53;103317.38;;;-1.53
78859;BMP280;68210;52.032;4.634;2024-01-11T08:12:53;103318.06;;;-1.21
78859;BMP280;68210;52.032;4.634;2024-01-11T08:14:54;103320.63;;;-1.01
78859;BMP280;68210;52.032;4.634;2024-01-11T08:16:56;103336.69;;;-0.84
78859;BMP280;68210;52.032;4.634;2024-01-11T08:18:58;103319.00;;;-0.48
78859;BMP280;68210;52.032;4.634;2024-01-11T08:20:58;103317.63;;;-0.57
78859;BMP280;68210;52.032;4.634;2024-01-11T08:22:59;103319.19;;;-0.43
78859;BMP280;68210;52.032;4.634;2024-01-11T08:24:59;103316.66;;;-0.14
78859;BMP280;68210;52.032;4.634;2024-01-11T08:27:00;103315.72;;;-0.01
78859;BMP280;68210;52.032;4.634;2024-01-11T08:29:00;103316.91;;;0.20
78859;BMP280;68210;52.032;4.634;2024-01-11T08:31:01;103316.19;;;0.31
78859;BMP280;68210;52.032;4.634;2024-01-11T08:33:01;103321.44;;;0.55
78859;BMP280;68210;52.032;4.634;2024-01-11T08:35:01;103310.19;;;0.82
78859;BMP280;68210;52.032;4.634;2024-01-11T08:37:02;103305.81;;;0.88
78859;BMP280;68210;52.032;4.634;2024-01-11T08:39:02;103313.78;;;1.05
78859;BMP280;68210;52.032;4.634;2024-01-11T08:41:05;103316.16;;;1.24
78859;BMP280;68210;52.032;4.634;2024-01-11T08:43:06;103317.44;;;1.22
78859;BMP280;68210;52.032;4.634;2024-01-11T08:45:07;103310.41;;;1.50
78859;BMP280;68210;52.032;4.634;2024-01-11T08:47:09;103320.53;;;1.59
78859;BMP280;68210;52.032;4.634;2024-01-11T08:49:10;103321.47;;;1.87
78859;BMP280;68210;52.032;4.634;2024-01-11T08:51:10;103319.31;;;1.96
78859;BMP280;68210;52.032;4.634;2024-01-11T08:53:11;103324.53;;;1.80
78859;BMP280;68210;52.032;4.634;2024-01-11T08:55:11;103318.13;;;1.92
78859;BMP280;68210;52.032;4.634;2024-01-11T08:57:12;103317.56;;;2.01
78859;BMP280;68210;52.032;4.634;2024-01-11T08:59:13;103328.25;;;2.01
78859;BMP280;68210;52.032;4.634;2024-01-11T09:01:14;103331.50;;;2.03
78859;BMP280;68210;52.032;4.634;2024-01-11T09:03:14;103331.03;;;2.06
78859;BMP280;68210;52.032;4.634;2024-01-11T09:05:16;103339.06;;;2.29
78859;BMP280;68210;52.032;4.634;2024-01-11T09:07:17;103352.03;;;2.59
78859;BMP280;68210;52.032;4.634;2024-01-11T09:09:17;103354.72;;;2.59
78859;BMP280;68210;52.032;4.634;2024-01-11T09:11:18;103351.66;;;2.67
78859;BMP280;68210;52.032;4.634;2024-01-11T09:13:18;103358.44;;;2.58
78859;BMP280;68210;52.032;4.634;2024-01-11T09:15:19;103343.03;;;2.65
78859;BMP280;68210;52.032;4.634;2024-01-11T09:17:19;103364.91;;;2.85
78859;BMP280;68210;52.032;4.634;2024-01-11T09:19:19;103359.97;;;3.21
78859;BMP280;68210;52.032;4.634;2024-01-11T09:21:20;103367.97;;;3.32
78859;BMP280;68210;52.032;4.634;2024-01-11T09:23:20;103372.06;;;3.51
78859;BMP280;68210;52.032;4.634;2024-01-11T09:25:20;103385.03;;;3.54
78859;BMP280;68210;52.032;4.634;2024-01-11T09:27:21;103384.72;;;3.39
78859;BMP280;68210;52.032;4.634;2024-01-11T09:29:22;103393.19;;;3.47
78859;BMP280;68210;52.032;4.634;2024-01-11T09:31:22;103386.53;;;3.50
78859;BMP280;68210;52.032;4.634;2024-01-11T09:33:23;103388.53;;;3.87
78859;BMP280;68210;52.032;4.634;2024-01-11T09:35:23;103401.81;;;3.49
78859;BMP280;68210;52.032;4.634;2024-01-11T09:37:23;103404.78;;;3.09
78859;BMP280;68210;52.032;4.634;2024-01-11T09:39:24;103397.72;;;2.92
78859;BMP280;68210;52.032;4.634;2024-01-11T09:41:25;103397.69;;;2.64
78859;BMP280;68210;52.032;4.634;2024-01-11T09:43:27;103397.81;;;2.46
78859;BMP280;68210;52.032;4.634;2024-01-11T09:45:27;103395.72;;;2.03
78859;BMP280;68210;52.032;4.634;2024-01-11T09:47:28;103402.25;;;1.96
78859;BMP280;68210;52.032;4.634;2024-01-11T09:49:30;103411.59;;;1.76
78859;BMP280;68210;52.032;4.634;2024-01-11T09:51:32;103409.50;;;1.66
78859;BMP280;68210;52.032;4.634;2024-01-11T09:53:34;103414.66;;;1.50
78859;BMP280;68210;52.032;4.634;2024-01-11T09:55:36;103412.34;;;1.42
78859;BMP280;68210;52.032;4.634;2024-01-11T09:57:36;103417.72;;;1.24
78859;BMP280;68210;52.032;4.634;2024-01-11T09:59:39;103422.06;;;1.08
78859;BMP280;68210;52.032;4.634;2024-01-11T10:01:40;103417.28;;;1.10
78859;BMP280;68210;52.032;4.634;2024-01-11T10:03:40;103420.53;;;1.12
78859;BMP280;68210;52.032;4.634;2024-01-11T10:05:42;103425.44;;;1.15
78859;BMP280;68210;52.032;4.634;2024-01-11T10:07:43;103422.78;;;1.15
78859;BMP280;68210;52.032;4.634;2024-01-11T10:09:43;103419.53;;;1.13
78859;BMP280;68210;52.032;4.634;2024-01-11T10:11:44;103417.81;;;1.18
78859;BMP280;68210;52.032;4.634;2024-01-11T10:13:44;103429.47;;;1.23
78859;BMP280;68210;52.032;4.634;2024-01-11T10:15:45;103424.09;;;1.23
78859;BMP280;68210;52.032;4.634;2024-01-11T10:17:46;103430.34;;;1.18
78859;BMP280;68210;52.032;4.634;2024-01-11T10:19:46;103420.53;;;1.12
78859;BMP280;68210;52.032;4.634;2024-01-11T10:21:46;103423.06;;;1.07
78859;BMP280;68210;52.032;4.634;2024-01-11T10:23:47;103425.19;;;1.05
78859;BMP280;68210;52.032;4.634;2024-01-11T10:25:49;103409.41;;;1.15
78859;BMP280;68210;52.032;4.634;2024-01-11T10:27:49;103410.16;;;1.04
78859;BMP280;68210;52.032;4.634;2024-01-11T10:29:51;103408.94;;;1.18
78859;BMP280;68210;52.032;4.634;2024-01-11T10:31:51;103403.50;;;0.95
78859;BMP280;68210;52.032;4.634;2024-01-11T10:33:52;103409.59;;;1.02
78859;BMP280;68210;52.032;4.634;2024-01-11T10:35:52;103409.41;;;1.15
78859;BMP280;68210;52.032;4.634;2024-01-11T10:37:53;103403.16;;;1.20
78859;BMP280;68210;52.032;4.634;2024-01-11T10:39:56;103406.44;;;1.22
78859;BMP280;68210;52.032;4.634;2024-01-11T10:42:04;103407.78;;;1.14
78859;BMP280;68210;52.032;4.634;2024-01-11T10:44:11;103402.44;;;1.14
78859;BMP280;68210;52.032;4.634;2024-01-11T10:46:14;103404.88;;;1.15
78859;BMP280;68210;52.032;4.634;2024-01-11T10:48:17;103412.22;;;1.20
78859;BMP280;68210;52.032;4.634;2024-01-11T10:50:18;103417.72;;;1.24
78859;BMP280;68210;52.032;4.634;2024-01-11T10:52:21;103409.09;;;1.22
78859;BMP280;68210;52.032;4.634;2024-01-11T10:54:23;103413.41;;;1.23
78859;BMP280;68210;52.032;4.634;2024-01-11T10:56:25;103414.13;;;1.30
78859;BMP280;68210;52.032;4.634;2024-01-11T10:58:26;103409.69;;;1.24
78859;BMP280;68210;52.032;4.634;2024-01-11T11:00:30;103424.81;;;1.30
78859;BMP280;68210;52.032;4.634;2024-01-11T11:02:32;103428.69;;;1.34
78859;BMP280;68210;52.032;4.634;2024-01-11T11:04:35;103438.31;;;1.35
78859;BMP280;68210;52.032;4.634;2024-01-11T11:06:36;103447.72;;;1.26
78859;BMP280;68210;52.032;4.634;2024-01-11T11:08:37;103454.81;;;1.32
78859;BMP280;68210;52.032;4.634;2024-01-11T11:10:38;103462.69;;;1.27
78859;BMP280;68210;52.032;4.634;2024-01-11T11:12:40;103457.25;;;1.34
78859;BMP280;68210;52.032;4.634;2024-01-11T11:14:42;103464.00;;;1.36
78859;BMP280;68210;52.032;4.634;2024-01-11T11:16:44;103449.63;;;1.37
78859;BMP280;68210;52.032;4.634;2024-01-11T11:18:45;103449.38;;;1.39
78859;BMP280;68210;52.032;4.634;2024-01-11T11:20:45;103457.25;;;1.34
78859;BMP280;68210;52.032;4.634;2024-01-11T11:23:06;103459.25;;;1.38
78859;BMP280;68210;52.032;4.634;2024-01-11T11:25:10;103452.84;;;1.39
78859;BMP280;68210;52.032;4.634;2024-01-11T11:27:13;103453.81;;;1.45
78859;BMP280;68210;52.032;4.634;2024-01-11T11:29:15;103442.31;;;1.44
78859;BMP280;68210;52.032;4.634;2024-01-11T11:33:34;103442.00;;;1.52
78859;BMP280;68210;52.032;4.634;2024-01-11T11:35:35;103437.25;;;1.54
78859;BMP280;68210;52.032;4.634;2024-01-11T11:37:37;103435.16;;;1.56
78859;BMP280;68210;52.032;4.634;2024-01-11T11:39:41;103437.97;;;1.61
78859;BMP280;68210;52.032;4.634;2024-01-11T11:41:42;103431.44;;;1.57
78859;BMP280;68210;52.032;4.634;2024-01-11T11:43:42;103430.50;;;1.63
78859;BMP280;68210;52.032;4.634;2024-01-11T11:45:44;103439.88;;;1.72
78859;BMP280;68210;52.032;4.634;2024-01-11T11:47:45;103425.56;;;1.66
78859;BMP280;68210;52.032;4.634;2024-01-11T11:50:06;103431.84;;;1.72
78859;BMP280;68210;52.032;4.634;2024-01-11T11:52:14;103433.00;;;1.76
78859;BMP280;68210;52.032;4.634;2024-01-11T11:54:14;103431.63;;;1.84
78859;BMP280;68210;52.032;4.634;2024-01-11T11:56:22;103432.94;;;1.93
78859;BMP280;68210;52.032;4.634;2024-01-11T11:58:23;103413.97;;;1.95
78859;BMP280;68210;52.032;4.634;2024-01-11T12:00:23;103414.69;;;2.02
78859;BMP280;68210;52.032;4.634;2024-01-11T12:02:27;103414.56;;;2.08
78859;BMP280;68210;52.032;4.634;2024-01-11T12:04:27;103401.31;;;2.13
78859;BMP280;68210;52.032;4.634;2024-01-11T12:06:28;103411.44;;;2.11
78859;BMP280;68210;52.032;4.634;2024-01-11T12:08:30;103404.19;;;2.11
78859;BMP280;68210;52.032;4.634;2024-01-11T12:10:30;103397.56;;;2.14
78859;BMP280;68210;52.032;4.634;2024-01-11T12:12:31;103392.94;;;2.21
78859;BMP280;68210;52.032;4.634;2024-01-11T12:14:31;103391.34;;;1.68
78859;BMP280;68210;52.032;4.634;2024-01-11T12:16:32;103388.16;;;2.00
78859;BMP280;68210;52.032;4.634;2024-01-11T12:18:32;103375.00;;;2.10
78859;BMP280;68210;52.032;4.634;2024-01-11T12:20:34;103360.69;;;2.27
78859;BMP280;68210;52.032;4.634;2024-01-11T12:22:34;103359.66;;;2.28
78859;BMP280;68210;52.032;4.634;2024-01-11T12:24:34;103365.94;;;2.34
78859;BMP280;68210;52.032;4.634;2024-01-11T12:26:35;103360.13;;;2.37
78859;BMP280;68210;52.032;4.634;2024-01-11T12:28:35;103350.34;;;1.85
78859;BMP280;68210;52.032;4.634;2024-01-11T12:30:36;103362.44;;;1.99
78859;BMP280;68210;52.032;4.634;2024-01-11T12:32:37;103356.75;;;2.07
78859;BMP280;68210;52.032;4.634;2024-01-11T12:34:38;103349.19;;;2.15
78859;BMP280;68210;52.032;4.634;2024-01-11T12:36:40;103346.16;;;2.23
78859;BMP280;68210;52.032;4.634;2024-01-11T12:38:46;103342.06;;;2.32
78859;BMP280;68210;52.032;4.634;2024-01-11T12:40:48;103349.06;;;2.22
78859;BMP280;68210;52.032;4.634;2024-01-11T12:42:48;103346.50;;;2.27
78859;BMP280;68210;52.032;4.634;2024-01-11T12:44:49;103352.19;;;2.42
78859;BMP280;68210;52.032;4.634;2024-01-11T12:46:51;103338.69;;;2.37
78859;BMP280;68210;52.032;4.634;2024-01-11T12:48:52;103344.75;;;1.98
78859;BMP280;68210;52.032;4.634;2024-01-11T12:50:53;103339.63;;;2.19
78859;BMP280;68210;52.032;4.634;2024-01-11T12:53:13;103343.25;;;2.36
78859;BMP280;68210;52.032;4.634;2024-01-11T12:55:20;103351.72;;;2.44
78859;BMP280;68210;52.032;4.634;2024-01-11T12:57:21;103351.81;;;2.38
78859;BMP280;68210;52.032;4.634;2024-01-11T12:59:25;103336.13;;;2.42
78859;BMP280;68210;52.032;4.634;2024-01-11T13:01:25;103339.84;;;2.41
78859;BMP280;68210;52.032;4.634;2024-01-11T13:03:26;103347.25;;;2.61
78859;BMP280;68210;52.032;4.634;2024-01-11T13:05:29;103344.00;;;2.59
78859;BMP280;68210;52.032;4.634;2024-01-11T13:07:36;103344.56;;;2.61
78859;BMP280;68210;52.032;4.634;2024-01-11T13:09:38;103340.28;;;2.60
78859;BMP280;68210;52.032;4.634;2024-01-11T13:11:39;103339.91;;;2.68
78859;BMP280;68210;52.032;4.634;2024-01-11T13:13:39;103335.00;;;2.76
78859;BMP280;68210;52.032;4.634;2024-01-11T13:15:40;103323.91;;;2.73
78859;BMP280;68210;52.032;4.634;2024-01-11T13:17:40;103328.72;;;2.71
78859;BMP280;68210;52.032;4.634;2024-01-11T13:19:41;103326.22;;;2.81
78859;BMP280;68210;52.032;4.634;2024-01-11T13:21:41;103328.53;;;2.89
78859;BMP280;68210;52.032;4.634;2024-01-11T13:23:42;103328.06;;;2.92
78859;BMP280;68210;52.032;4.634;2024-01-11T13:25:43;103322.22;;;2.95
78859;BMP280;68210;52.032;4.634;2024-01-11T13:27:44;103318.28;;;3.13
78859;BMP280;68210;52.032;4.634;2024-01-11T13:29:44;103312.19;;;3.02
78859;BMP280;68210;52.032;4.634;2024-01-11T13:31:44;103316.72;;;3.01
78859;BMP280;68210;52.032;4.634;2024-01-11T13:33:45;103301.16;;;3.14
78859;BMP280;68210;52.032;4.634;2024-01-11T13:35:45;103306.75;;;3.13
78859;BMP280;68210;52.032;4.634;2024-01-11T13:37:46;103310.97;;;3.09
78859;BMP280;68210;52.032;4.634;2024-01-11T13:39:46;103306.00;;;3.01
78859;BMP280;68210;52.032;4.634;2024-01-11T13:41:46;103310.94;;;2.93
78859;BMP280;68210;52.032;4.634;2024-01-11T13:43:47;103312.66;;;2.99
78859;BMP280;68210;52.032;4.634;2024-01-11T13:45:48;103312.19;;;3.02
78859;BMP280;68210;52.032;4.634;2024-01-11T13:47:49;103316.56;;;3.07
78859;BMP280;68210;52.032;4.634;2024-01-11T13:49:50;103312.66;;;2.99
78859;BMP280;68210;52.032;4.634;2024-01-11T13:51:50;103311.59;;;3.00
78859;BMP280;68210;52.032;4.634;2024-01-11T13:53:50;103315.44;;;3.03
78859;BMP280;68210;52.032;4.634;2024-01-11T13:55:51;103318.22;;;3.08
78859;BMP280;68210;52.032;4.634;2024-01-11T13:57:52;103316.56;;;3.07
78859;BMP280;68210;52.032;4.634;2024-01-11T13:59:53;103316.03;;;3.05
78859;BMP280;68210;52.032;4.634;2024-01-11T14:01:53;103313.78;;;3.02
78859;BMP280;68210;52.032;4.634;2024-01-11T14:03:54;103313.03;;;3.18
78859;BMP280;68210;52.032;4.634;2024-01-11T14:05:54;103311.66;;;3.48
78859;BMP280;68210;52.032;4.634;2024-01-11T14:07:55;103301.50;;;3.34
78859;BMP280;68210;52.032;4.634;2024-01-11T14:09:58;103312.78;;;3.20
78859;BMP280;68210;52.032;4.634;2024-01-11T14:11:59;103302.75;;;2.99
78859;BMP280;68210;52.032;4.634;2024-01-11T14:14:02;103303.78;;;3.42